Basenerd Banner
Loading games...
Junior Caminero
Junior Caminero
Tampa Bay Rays • Third Base
Age 23 • 6' 1" • 220 lb
Bats: R • Throws: R
MLB Debut: 2023-09-23
Born: Santo Domingo • Dominican Republic
2026 Stats
G
137
AB
522
H
147
HR
37
RBI
87
R
85
SB
3
AVG
.282
OBP
.369
SLG
.536
OPS
.905
Career Stats
G
341
AB
1323
H
355
HR
89
RBI
222
R
197
SB
12
AVG
.268
OBP
.332
SLG
.517
OPS
.849
Year-by-Year Hitting
Year Team GPAABH HRRBISB AVGOBPSLGOPSAwards
2023 TB 7 36 34 8 1 7 .235 .278 .353 .631
2024 TB 43 177 165 41 6 18 2 .248 .299 .424 .723
2025 TB 154 653 602 159 45 110 7 .264 .311 .535 .846 AS
2026 TB 137 597 522 147 37 87 3 .282 .369 .536 .905 AS
Spring Training
Hitting
YearTeamGPAABHHRRBISBAVGOBPSLGOPS
2023 TB 354 .000.200.000.200
2024 TB 927267 14 .269.296.423.719
2025 TB 1550477 410 .149.200.447.647
2026 TB 1027258 6 .320.370.360.730
Postseason
Hitting
YearTeamGPAABHHRRBISBAVGOBPSLGOPS
2023 TB 222 .000.000.000.000
Game Logs
Season selector loads one year at a time.
Hitting
Date Opponent AB H 2B 3B HR RBI R BB SO
2026-08-31 vs NYM 4 1 0 0 0 0 0 0 1
2026-08-30 vs SD 4 2 0 0 1 1 2 1 2
2026-08-29 vs SD 3 1 0 0 1 1 1 1 0
2026-08-28 vs SD 4 1 0 0 0 1 1 0 0
2026-08-26 @ DET 4 2 0 0 0 0 0 0 1
2026-08-25 @ DET 4 2 0 0 0 0 1 0 0
2026-08-24 @ DET 3 1 0 0 0 1 0 1 1
2026-08-23 @ BAL 3 1 0 0 0 1 1 1 0
2026-08-22 @ BAL 4 1 0 0 0 1 0 0 0
2026-08-21 @ BAL 4 2 1 0 0 0 1 0 0
2026-08-20 vs TOR 4 1 0 0 0 1 0 0 1
2026-08-19 vs TOR 4 1 1 0 0 1 1 0 1
2026-08-18 vs TOR 5 2 0 0 0 0 0 0 0
2026-08-17 vs BAL 4 1 0 0 0 0 0 0 1
2026-08-16 vs BAL 3 0 0 0 0 0 0 0 2
2026-08-15 vs BAL 5 1 0 0 0 1 0 0 2
2026-08-14 vs BAL 4 0 0 0 0 1 1 1 1
2026-08-12 @ ATH 5 2 0 0 0 1 2 0 0
2026-08-11 @ ATH 3 1 0 0 1 2 2 1 1
2026-08-10 @ ATH 5 1 0 0 1 3 1 0 0
2026-08-09 @ SEA 4 0 0 0 0 0 1 1 2
2026-08-08 @ SEA 4 0 0 0 0 0 0 0 2
2026-08-07 @ SEA 2 0 0 0 0 0 0 2 0
2026-08-05 @ COL 3 1 0 0 1 1 1 1 0
2026-08-04 @ COL 6 2 0 0 0 1 0 0 3
2026-08-03 @ COL 5 2 0 0 2 3 3 0 0
2026-08-02 vs CWS 4 2 0 0 0 0 0 0 0
2026-08-01 vs CWS 3 0 0 0 0 0 0 0 2
2026-07-31 vs CWS 2 1 0 0 1 1 1 2 1
2026-07-30 vs TEX 3 0 0 0 0 0 0 1 0
2026-07-29 vs TEX 3 0 0 0 0 0 0 0 1
2026-07-28 vs TEX 4 2 1 1 0 1 0 0 0
2026-07-26 vs CLE 4 0 0 0 0 0 0 0 0
2026-07-25 vs CLE 4 1 1 0 0 1 0 0 1
2026-07-24 vs CLE 5 1 0 0 0 1 0 0 0
2026-07-23 @ TOR 4 0 0 0 0 0 0 0 3
2026-07-22 @ TOR 4 2 0 0 0 0 1 0 0
2026-07-21 @ TOR 3 2 0 0 0 0 1 3 0
2026-07-20 @ TOR 4 3 2 0 0 2 0 1 0
2026-07-19 @ BOS 5 1 0 0 0 0 0 0 1
2026-07-18 @ BOS 4 1 0 0 0 0 0 0 0
2026-07-17 @ BOS 4 1 0 0 0 0 0 0 1
2026-07-17 @ BOS 4 2 0 0 1 1 2 0 0
2026-07-12 vs SEA 3 0 0 0 0 0 0 1 3
2026-07-11 vs SEA 2 1 1 0 0 0 1 2 1
2026-07-10 vs SEA 4 2 1 0 1 2 2 1 1
2026-07-09 vs NYY 4 1 0 0 1 1 1 0 0
2026-07-08 vs NYY 4 0 0 0 0 0 0 0 2
2026-07-07 vs NYY 4 0 0 0 0 0 0 0 2
2026-07-06 vs NYY 4 0 0 0 0 0 0 0 1
2026-07-05 @ HOU 3 0 0 0 0 0 0 1 1
2026-07-04 @ HOU 4 2 0 0 1 1 2 1 1
2026-07-03 @ HOU 4 1 0 0 1 1 1 0 1
2026-07-02 @ KC 5 0 0 0 0 0 0 0 0
2026-07-01 @ KC 4 1 0 0 1 2 1 0 3
2026-06-30 @ KC 5 2 0 0 1 3 1 0 0
2026-06-28 vs AZ 3 3 0 0 1 2 1 1 0
2026-06-27 vs AZ 4 1 0 0 1 1 1 0 1
2026-06-26 vs AZ 3 1 0 0 1 3 1 1 0
2026-06-25 vs KC 5 3 0 0 3 6 3 0 1
2026-06-24 vs KC 2 0 0 0 0 0 1 2 2
2026-06-23 vs KC 5 3 0 0 1 3 1 0 0
2026-06-22 vs KC 4 0 0 0 0 0 0 0 0
2026-06-21 vs WSH 4 0 0 0 0 0 0 0 3
2026-06-20 vs WSH 3 3 0 0 0 1 1 1 0
2026-06-19 vs WSH 4 2 0 0 0 0 0 0 1
2026-06-17 @ LAD 4 1 0 0 0 1 0 0 1
2026-06-16 @ LAD 2 0 0 0 0 0 0 1 1
2026-06-15 @ LAD 4 2 1 0 0 0 1 0 1
2026-06-14 @ LAA 5 1 0 0 1 2 1 0 1
2026-06-13 @ LAA 4 1 0 0 0 0 0 0 3
2026-06-12 @ LAA 4 0 0 0 0 0 0 1 2
2026-06-10 vs BOS 3 1 0 0 0 0 0 1 1
2026-06-09 vs BOS 4 1 1 0 0 0 0 0 1
2026-06-08 vs BOS 3 1 0 0 0 0 0 1 1
2026-06-07 @ MIA 4 0 0 0 0 0 0 0 0
2026-06-06 @ MIA 5 0 0 0 0 0 0 0 3
2026-06-05 @ MIA 3 3 2 0 0 0 3 2 0
2026-06-03 vs DET 4 1 0 0 0 0 1 0 1
2026-06-02 vs DET 4 1 0 0 0 0 0 0 0
2026-06-01 vs DET 3 1 0 0 1 2 3 2 0
2026-05-31 vs LAA 3 2 0 0 0 0 1 2 0
2026-05-30 vs LAA 3 2 2 0 0 1 0 2 1
2026-05-29 vs LAA 4 2 1 0 0 0 1 1 0
2026-05-27 @ BAL 3 0 0 0 0 0 0 0 0
2026-05-26 @ BAL 3 1 0 0 0 0 0 1 0
2026-05-25 @ BAL 6 1 0 0 0 0 0 0 2
2026-05-24 @ NYY 3 1 0 0 0 0 0 1 0
2026-05-22 @ NYY 4 1 0 0 0 0 1 1 1
2026-05-20 vs BAL 4 2 0 0 0 0 0 0 0
2026-05-19 vs BAL 3 1 1 0 0 0 0 1 2
2026-05-18 vs BAL 4 2 0 0 1 4 3 2 0
2026-05-17 vs MIA 2 1 0 0 1 2 1 2 1
2026-05-16 vs MIA 5 2 1 0 0 2 1 0 0
2026-05-15 vs MIA 4 0 0 0 0 0 0 0 1
2026-05-13 @ TOR 4 1 0 0 0 0 0 0 1
2026-05-12 @ TOR 6 2 0 0 0 0 1 0 1
2026-05-11 @ TOR 4 1 0 0 0 0 1 1 0
2026-05-10 @ BOS 4 1 0 0 1 1 1 0 1
2026-05-08 @ BOS 4 0 0 0 0 0 0 0 0
2026-05-07 @ BOS 4 2 0 0 1 2 2 1 0
2026-05-06 vs TOR 4 0 0 0 0 0 0 0 1
2026-05-05 vs TOR 3 1 0 0 0 0 0 1 0
2026-05-04 vs TOR 3 0 0 0 0 0 1 1 1
2026-05-03 vs SF 2 1 0 0 0 0 1 3 0
2026-05-02 vs SF 3 1 0 0 0 0 1 1 2
2026-05-01 vs SF 3 1 0 0 1 1 1 0 1
2026-04-29 @ CLE 4 1 0 0 0 0 0 0 2
2026-04-28 @ CLE 1 0 0 0 0 0 0 0 0
2026-04-27 @ CLE 4 1 0 0 0 0 0 0 2
2026-04-26 vs MIN 4 0 0 0 0 0 0 0 0
2026-04-25 vs MIN 4 1 0 0 0 0 0 0 0
2026-04-24 vs MIN 4 2 0 0 2 3 2 0 0
2026-04-22 vs CIN 4 1 0 0 1 2 1 0 0
2026-04-21 vs CIN 4 2 0 0 0 0 2 1 1
2026-04-20 vs CIN 4 1 0 0 0 0 0 0 0
2026-04-19 @ PIT 4 1 0 0 1 1 1 0 0
2026-04-18 @ PIT 7 2 1 0 0 1 1 0 0
2026-04-17 @ PIT 4 1 0 0 0 1 0 0 1
2026-04-16 @ CWS 5 2 0 0 1 1 1 0 1
2026-04-15 @ CWS 4 1 0 0 1 2 2 1 1
2026-04-14 @ CWS 3 0 0 0 0 0 1 2 0
2026-04-12 vs NYY 3 2 0 0 0 1 0 0 1
2026-04-11 vs NYY 4 1 1 0 0 0 1 0 1
2026-04-10 vs NYY 4 1 0 0 0 0 0 1 1
2026-04-08 vs CHC 4 0 0 0 0 0 0 0 2
2026-04-07 vs CHC 3 0 0 0 0 0 0 1 2
2026-04-06 vs CHC 4 1 0 0 1 1 1 0 1
2026-04-05 @ MIN 4 1 0 0 1 2 1 1 0
2026-04-04 @ MIN 5 1 0 0 0 0 0 0 0
2026-04-03 @ MIN 5 2 1 0 0 0 1 0 0
2026-04-01 @ MIL 4 0 0 0 0 0 0 0 2
2026-03-31 @ MIL 3 1 0 0 0 0 0 1 1
2026-03-30 @ MIL 4 2 0 0 0 0 0 0 0
2026-03-29 @ STL 5 0 0 0 0 0 0 0 2
2026-03-28 @ STL 3 1 0 0 0 0 1 1 0
2026-03-26 @ STL 2 1 0 0 0 0 1 4 1
Transactions
Entire history • newest first.
2026-07-13
American League All-Stars activated 3B Junior Caminero.
2026-04-16
3B Junior Caminero changed number to 13.
2026-04-15
3B Junior Caminero changed number to 42.
2025-07-14
3B Junior Caminero assigned to American League All-Stars.
2025-04-16
3B Junior Caminero changed number to 13.
2025-04-15
3B Junior Caminero changed number to 42.
2024-08-13
Tampa Bay Rays recalled SS Junior Caminero from Durham Bulls.
2024-03-11
Tampa Bay Rays optioned SS Junior Caminero to Durham Bulls.
2023-12-19
Tampa Bay Rays activated SS Junior Caminero.
2023-09-22
Tampa Bay Rays selected the contract of SS Junior Caminero from Montgomery Biscuits.
2023-03-16
SS Junior Caminero and assigned to Tampa Bay Rays.
2021-11-19
Tampa Bay Rays traded RHP Tobias Myers to Cleveland Indians for SS Junior Caminero.
2019-07-02
Cleveland Indians signed free agent SS Junior Caminero to a minor league contract.
Scouting Report
Statcast-style percentiles • Basenerd theme
Season 2026
No Statcast percentile data available.
Spray Chart
Hits only • Stadium overlay
1B 2B 3B HR
MLBAM-style coords scaled into stadium viewBox. Home plate baseline ≈ (125, 199). Stadium SVG: rays.svg.
Results by Pitch Type
Pitch # Usage% Zone% Whiff% AVG HardHit%
4-Seam Fastball 481 21.1% 48.9% 18.3% .320 63.6%
Sinker 474 20.8% 51.5% 10.5% .342 54.8%
Slider 398 17.4% 42.2% 26.3% .253 48.7%
Changeup 237 10.4% 35.4% 27.5% .250 31.1%
Sweeper 215 9.4% 34.0% 33.0% .222 51.4%
Cutter 180 7.9% 46.7% 11.5% .303 38.7%
Curveball 132 5.8% 35.6% 31.7% .161 38.9%
Splitter 92 4.0% 23.9% 35.9% .312 55.6%
Knuckle Curve 56 2.5% 30.4% 38.1% .286 50.0%
Eephus 14 0.6% 14.3% 0.0% .333 33.3%
Slurve 3 0.1% 66.7% 0.0% .000 0.0%
Total 2282 100.0% 42.9% 22.0% .283 50.1%
Results by Pitch Category
Category # Usage% Zone% Whiff% AVG HardHit%
Fastball 1135 49.7% 49.6% 14.2% .328 55.7%
Breaking 804 35.2% 38.2% 29.7% .231 47.9%
Offspeed 343 15.0% 31.5% 28.8% .268 35.1%
Total 2282 100.0% 42.9% 22.0% .283 50.1%
MLB Avg - - 50.6% 25.3% .245 41.0%
More